createdAt,value
2023-03-19T00:02:42.131Z,25.70
2023-03-19T00:05:11.589Z,25.70
2023-03-19T00:07:40.797Z,25.70
2023-03-19T00:10:10.490Z,25.70
2023-03-19T00:12:39.889Z,25.60
2023-03-19T00:18:09.825Z,25.70
2023-03-19T00:20:56.731Z,25.80
2023-03-19T00:26:14.747Z,25.80
2023-03-19T00:28:44.269Z,25.90
2023-03-19T00:31:17.776Z,25.90
2023-03-19T00:36:36.685Z,26.00
2023-03-19T00:39:06.957Z,26.10
2023-03-19T00:41:36.203Z,26.20
2023-03-19T00:44:07.126Z,26.20
2023-03-19T00:49:38.259Z,26.40
2023-03-19T00:52:11.530Z,26.40
2023-03-19T00:54:40.798Z,26.50
2023-03-19T00:57:10.325Z,26.60
2023-03-19T00:59:39.590Z,26.70
2023-03-19T01:02:11.920Z,26.80
2023-03-19T01:04:41.332Z,26.80
2023-03-19T01:07:10.763Z,26.90
2023-03-19T01:09:40.472Z,27.00
2023-03-19T01:12:11.819Z,27.00
2023-03-19T01:23:18.157Z,27.20
2023-03-19T01:28:39.216Z,27.40
2023-03-19T01:34:16.997Z,27.50
2023-03-19T01:39:47.634Z,27.60
2023-03-19T01:49:02.410Z,27.70
2023-03-19T01:51:53.403Z,27.70
2023-03-19T02:00:45.844Z,27.90
2023-03-19T02:03:16.441Z,27.90
2023-03-19T02:11:41.927Z,28.10
2023-03-19T02:14:17.103Z,28.10
2023-03-19T02:16:57.230Z,28.20
2023-03-19T02:19:59.013Z,28.20
2023-03-19T02:22:37.731Z,28.30
2023-03-19T02:25:48.821Z,28.30
2023-03-19T02:28:37.258Z,28.40
2023-03-19T02:31:14.875Z,28.50
2023-03-19T02:34:30.729Z,28.60
2023-03-19T02:37:13.605Z,28.70
2023-03-19T02:48:33.345Z,28.90
2023-03-19T02:59:14.570Z,29.30
2023-03-19T03:01:53.569Z,29.40
2023-03-19T03:04:34.331Z,29.50
2023-03-19T03:07:14.455Z,29.60
2023-03-19T03:09:45.841Z,29.60
2023-03-19T03:12:17.122Z,29.70
2023-03-19T03:17:39.578Z,29.80
2023-03-19T03:22:57.004Z,29.90
2023-03-19T03:25:31.576Z,30.00
2023-03-19T03:28:01.037Z,30.00
2023-03-19T03:30:42.916Z,30.10
2023-03-19T03:33:18.263Z,30.10
2023-03-19T03:35:47.946Z,30.20
2023-03-19T03:38:17.600Z,30.30
2023-03-19T03:40:46.820Z,30.50
2023-03-19T03:43:16.828Z,30.60
2023-03-19T03:45:46.772Z,30.80
2023-03-19T03:48:17.119Z,30.90
2023-03-19T03:50:46.870Z,31.10
2023-03-19T03:53:17.056Z,31.20
2023-03-19T03:55:46.715Z,31.20
2023-03-19T03:58:15.953Z,31.30
2023-03-19T04:00:45.348Z,31.40
2023-03-19T04:03:14.664Z,31.40
2023-03-19T04:05:44.773Z,31.50
2023-03-19T04:08:13.982Z,31.60
2023-03-19T04:10:44.748Z,31.60
2023-03-19T04:13:14.837Z,31.80
2023-03-19T04:15:47.518Z,31.90
2023-03-19T04:18:16.743Z,32.10
2023-03-19T04:20:45.819Z,32.20
2023-03-19T04:23:14.934Z,32.30
2023-03-19T04:25:44.058Z,32.40
2023-03-19T04:28:13.119Z,32.50
2023-03-19T04:30:42.596Z,32.60
2023-03-19T04:33:13.051Z,32.70
2023-03-19T04:35:42.500Z,32.80
2023-03-19T04:38:11.785Z,32.90
2023-03-19T04:40:40.883Z,33.00
2023-03-19T04:43:09.972Z,33.10
2023-03-19T04:45:39.190Z,33.30
2023-03-19T04:48:09.661Z,33.30
2023-03-19T04:50:39.233Z,33.50
2023-03-19T04:53:09.018Z,33.70
2023-03-19T04:55:38.211Z,33.80
2023-03-19T04:58:07.704Z,33.90
2023-03-19T05:00:37.084Z,34.00
2023-03-19T05:03:06.377Z,34.10
2023-03-19T05:05:35.594Z,34.20
2023-03-19T05:08:05.291Z,34.40
2023-03-19T05:10:36.013Z,34.60
2023-03-19T05:13:06.863Z,34.70
2023-03-19T05:15:36.463Z,34.80
2023-03-19T05:18:06.198Z,34.90
2023-03-19T05:20:35.858Z,35.00
2023-03-19T05:23:05.694Z,35.20
2023-03-19T05:25:37.061Z,35.20
2023-03-19T05:28:08.244Z,35.40
2023-03-19T05:30:38.181Z,35.50
2023-03-19T05:33:08.123Z,35.60
2023-03-19T05:35:39.228Z,35.70
2023-03-19T05:38:09.222Z,35.60
2023-03-19T05:40:38.652Z,35.60
2023-03-19T05:43:07.882Z,35.60
2023-03-19T05:45:37.861Z,35.70
2023-03-19T05:48:07.512Z,35.80
2023-03-19T05:50:36.786Z,35.90
2023-03-19T05:53:05.997Z,36.00
2023-03-19T05:55:35.165Z,36.00
2023-03-19T05:58:04.363Z,36.00
2023-03-19T06:00:33.922Z,36.00
2023-03-19T06:03:03.553Z,36.10
2023-03-19T06:05:32.954Z,36.20
2023-03-19T06:08:02.241Z,36.30
2023-03-19T06:10:31.757Z,36.30
2023-03-19T06:13:01.413Z,36.30
2023-03-19T06:15:30.822Z,36.40
2023-03-19T06:18:00.208Z,36.60
2023-03-19T06:20:29.339Z,36.70
2023-03-19T06:22:58.462Z,36.70
2023-03-19T06:25:28.047Z,36.70
2023-03-19T06:27:57.139Z,36.70
2023-03-19T06:30:26.667Z,36.70
2023-03-19T06:32:55.773Z,36.70
2023-03-19T06:35:25.250Z,36.70
2023-03-19T06:37:54.494Z,36.80
2023-03-19T06:40:23.850Z,36.80
2023-03-19T06:42:53.301Z,36.80
2023-03-19T06:45:22.426Z,36.90
2023-03-19T06:47:53.480Z,36.90
2023-03-19T06:50:22.834Z,36.90
2023-03-19T06:52:52.040Z,37.00
2023-03-19T06:55:21.589Z,37.20
2023-03-19T06:57:52.242Z,37.20
2023-03-19T07:00:21.795Z,37.20
2023-03-19T07:02:50.961Z,37.20
2023-03-19T07:05:20.135Z,37.20
2023-03-19T07:07:49.257Z,37.20
2023-03-19T07:10:22.034Z,37.20
2023-03-19T07:12:51.541Z,37.20
2023-03-19T07:15:22.403Z,37.20
2023-03-19T07:17:51.728Z,37.10
2023-03-19T07:20:20.985Z,37.00
2023-03-19T07:22:52.750Z,36.90
2023-03-19T07:25:22.637Z,36.90
2023-03-19T07:27:53.540Z,36.80
2023-03-19T07:30:25.230Z,36.70
2023-03-19T07:32:54.363Z,36.80
2023-03-19T07:35:23.677Z,36.80
2023-03-19T07:37:52.856Z,36.90
2023-03-19T07:40:21.959Z,36.80
2023-03-19T07:42:51.148Z,36.80
2023-03-19T07:45:20.431Z,36.70
2023-03-19T07:47:52.519Z,36.70
2023-03-19T07:50:22.065Z,36.60
2023-03-19T07:52:55.108Z,36.50
2023-03-19T07:55:24.324Z,36.40
2023-03-19T07:57:53.670Z,36.30
2023-03-19T08:00:23.135Z,36.20
2023-03-19T08:02:52.358Z,36.10
2023-03-19T08:05:21.614Z,36.10
2023-03-19T08:07:52.182Z,36.00
2023-03-19T08:10:21.753Z,35.90
2023-03-19T08:12:51.897Z,35.90
2023-03-19T08:15:21.120Z,35.90
2023-03-19T08:17:50.834Z,35.90
2023-03-19T08:20:20.392Z,35.90
2023-03-19T08:22:52.102Z,35.90
2023-03-19T08:25:21.527Z,35.90
2023-03-19T08:27:51.985Z,35.80
2023-03-19T08:30:21.654Z,35.90
2023-03-19T08:32:51.544Z,35.90
2023-03-19T08:35:21.370Z,36.00
2023-03-19T08:37:50.568Z,36.20
2023-03-19T08:40:20.114Z,36.30
2023-03-19T08:42:49.976Z,36.30
2023-03-19T08:45:19.525Z,36.30
2023-03-19T08:47:50.191Z,36.30
2023-03-19T08:50:20.694Z,36.30
2023-03-19T08:52:49.953Z,36.30
2023-03-19T08:55:20.052Z,36.30
2023-03-19T08:57:49.278Z,36.40
2023-03-19T09:00:20.516Z,36.40
2023-03-19T09:02:50.098Z,36.40
2023-03-19T09:05:23.323Z,36.50
2023-03-19T09:07:53.864Z,36.50
2023-03-19T09:10:23.130Z,36.60
2023-03-19T09:12:52.462Z,36.70
2023-03-19T09:15:21.673Z,36.70
2023-03-19T09:17:50.942Z,36.70
2023-03-19T09:20:20.653Z,36.70
2023-03-19T09:22:49.993Z,36.60
2023-03-19T09:25:19.370Z,36.60
2023-03-19T09:27:48.630Z,36.50
2023-03-19T09:30:18.008Z,36.40
2023-03-19T09:32:47.465Z,36.30
2023-03-19T09:35:16.851Z,36.20
2023-03-19T09:37:46.047Z,36.00
2023-03-19T09:40:45.040Z,35.90
2023-03-19T09:43:26.522Z,35.80
2023-03-19T09:45:55.855Z,35.70
2023-03-19T09:48:53.587Z,35.60
2023-03-19T09:52:11.480Z,35.40
2023-03-19T09:54:49.396Z,35.30
2023-03-19T09:57:18.531Z,35.20
2023-03-19T09:59:50.043Z,35.10
2023-03-19T10:02:43.953Z,35.00
2023-03-19T10:05:28.174Z,34.90
2023-03-19T10:08:40.371Z,34.80
2023-03-19T10:11:28.769Z,34.70
2023-03-19T10:14:18.034Z,34.60
2023-03-19T10:16:52.442Z,34.40
2023-03-19T10:19:40.712Z,34.40
2023-03-19T10:22:18.853Z,34.30
2023-03-19T10:24:49.964Z,34.20
2023-03-19T10:27:27.452Z,34.10
2023-03-19T10:29:57.768Z,34.00
2023-03-19T10:33:27.301Z,33.90
2023-03-19T10:36:16.392Z,33.90
2023-03-19T10:38:46.445Z,33.80
2023-03-19T10:41:42.601Z,33.80
2023-03-19T10:44:33.301Z,33.70
2023-03-19T10:47:14.449Z,33.60
2023-03-19T10:49:44.405Z,33.60
2023-03-19T10:52:38.217Z,33.50
2023-03-19T10:55:18.858Z,33.40
2023-03-19T10:57:53.248Z,33.40
2023-03-19T11:00:30.850Z,33.30
2023-03-19T11:03:00.412Z,33.20
2023-03-19T11:05:33.189Z,33.20
2023-03-19T11:08:35.031Z,33.10
2023-03-19T11:11:05.234Z,33.00
2023-03-19T11:13:37.926Z,33.00
2023-03-19T11:16:07.725Z,32.90
2023-03-19T11:18:42.136Z,32.90
2023-03-19T11:21:25.798Z,32.80
2023-03-19T11:24:03.797Z,32.80
2023-03-19T11:26:33.000Z,32.70
2023-03-19T11:29:07.133Z,32.70
2023-03-19T11:31:50.611Z,32.70
2023-03-19T11:34:49.124Z,32.70
2023-03-19T11:37:59.482Z,32.70
2023-03-19T11:40:53.544Z,32.70
2023-03-19T11:43:58.471Z,32.70
2023-03-19T11:46:47.166Z,32.70
2023-03-19T11:49:43.458Z,32.70
2023-03-19T11:52:41.632Z,32.60
2023-03-19T11:55:50.631Z,32.50
2023-03-19T11:58:58.977Z,32.50
2023-03-19T12:01:58.443Z,32.40
2023-03-19T12:04:57.496Z,32.40
2023-03-19T12:08:02.863Z,32.40
2023-03-19T12:10:43.991Z,32.40
2023-03-19T12:13:49.679Z,32.40
2023-03-19T12:16:37.012Z,32.30
2023-03-19T12:19:49.693Z,32.30
2023-03-19T12:22:55.766Z,32.20
2023-03-19T12:26:40.154Z,32.10
2023-03-19T12:29:42.129Z,32.10
2023-03-19T12:32:25.541Z,32.10
2023-03-19T12:35:12.812Z,32.00
2023-03-19T12:37:55.130Z,32.00
2023-03-19T12:40:49.576Z,32.00
2023-03-19T12:43:48.701Z,32.00
2023-03-19T12:46:45.512Z,32.00
2023-03-19T12:49:20.123Z,32.00
2023-03-19T12:52:05.393Z,31.90
2023-03-19T12:54:43.108Z,31.90
2023-03-19T12:57:23.762Z,31.80
2023-03-19T13:00:19.202Z,31.80
2023-03-19T13:03:21.731Z,31.70
2023-03-19T13:06:36.630Z,31.70
2023-03-19T13:09:34.358Z,31.70
2023-03-19T13:12:24.873Z,31.60
2023-03-19T13:15:06.574Z,31.60
2023-03-19T13:18:05.948Z,31.50
2023-03-19T13:21:11.387Z,31.50
2023-03-19T13:23:43.990Z,31.50
2023-03-19T13:26:15.519Z,31.40
2023-03-19T13:29:02.502Z,31.30
2023-03-19T13:31:37.779Z,31.20
2023-03-19T13:34:30.843Z,31.10
2023-03-19T13:37:19.269Z,31.00
2023-03-19T13:39:50.676Z,31.00
2023-03-19T13:42:44.780Z,30.80
2023-03-19T13:45:30.782Z,30.80
2023-03-19T13:48:46.323Z,30.70
2023-03-19T13:51:24.877Z,30.60
2023-03-19T13:54:24.097Z,30.50
2023-03-19T13:57:02.579Z,30.50
2023-03-19T13:59:37.183Z,30.40
2023-03-19T14:02:26.490Z,30.40
2023-03-19T14:05:36.737Z,30.30
2023-03-19T14:08:30.514Z,30.30
2023-03-19T14:11:02.998Z,30.30
2023-03-19T14:13:44.229Z,30.30
2023-03-19T14:16:21.056Z,30.20
2023-03-19T14:18:55.913Z,30.20
2023-03-19T14:21:59.357Z,30.10
2023-03-19T14:25:06.034Z,30.10
2023-03-19T14:27:44.840Z,30.00
2023-03-19T14:30:41.734Z,30.00
2023-03-19T14:33:28.029Z,29.90
2023-03-19T14:36:04.026Z,29.90
2023-03-19T14:38:48.917Z,29.90
2023-03-19T14:41:23.753Z,29.80
2023-03-19T14:43:53.599Z,29.90
2023-03-19T14:47:13.756Z,29.90
2023-03-19T14:50:03.919Z,29.80
2023-03-19T14:53:05.918Z,29.90
2023-03-19T14:55:39.834Z,29.80
2023-03-19T14:58:14.582Z,29.80
2023-03-19T15:00:56.986Z,29.80
2023-03-19T15:03:40.109Z,29.80
2023-03-19T15:06:15.048Z,29.80
2023-03-19T15:08:44.889Z,29.70
2023-03-19T15:11:19.699Z,29.70
2023-03-19T15:13:51.897Z,29.70
2023-03-19T15:16:58.655Z,29.70
2023-03-19T15:19:33.702Z,29.70
2023-03-19T15:22:23.544Z,29.70
2023-03-19T15:24:53.103Z,29.70
2023-03-19T15:27:28.562Z,29.60
2023-03-19T15:30:08.866Z,29.70
2023-03-19T15:33:04.437Z,29.60
2023-03-19T15:35:37.765Z,29.60
2023-03-19T15:38:14.718Z,29.50
2023-03-19T15:40:46.464Z,29.50
2023-03-19T15:43:16.490Z,29.50
2023-03-19T15:45:52.511Z,29.50
2023-03-19T15:48:37.824Z,29.50
2023-03-19T15:51:11.546Z,29.40
2023-03-19T15:53:41.796Z,29.40
2023-03-19T15:56:15.170Z,29.40
2023-03-19T15:58:53.059Z,29.30
2023-03-19T16:01:25.934Z,29.30
2023-03-19T16:04:17.313Z,29.30
2023-03-19T16:06:51.793Z,29.20
2023-03-19T16:09:31.077Z,29.20
2023-03-19T16:12:06.207Z,29.20
2023-03-19T16:14:43.298Z,29.10
2023-03-19T16:17:21.372Z,29.10
2023-03-19T16:20:03.593Z,29.10
2023-03-19T16:22:34.632Z,29.00
2023-03-19T16:25:07.903Z,29.00
2023-03-19T16:27:42.099Z,28.90
2023-03-19T16:30:30.902Z,28.90
2023-03-19T16:33:06.602Z,28.80
2023-03-19T16:35:38.600Z,28.80
2023-03-19T16:38:17.921Z,28.80
2023-03-19T16:40:50.403Z,28.80
2023-03-19T16:43:35.386Z,28.70
2023-03-19T16:46:13.457Z,28.70
2023-03-19T16:48:42.731Z,28.70
2023-03-19T16:51:22.472Z,28.70
2023-03-19T16:53:51.875Z,28.60
2023-03-19T16:56:21.940Z,28.60
2023-03-19T16:58:51.328Z,28.60
2023-03-19T17:01:25.620Z,28.60
2023-03-19T17:03:55.675Z,28.60
2023-03-19T17:06:25.044Z,28.60
2023-03-19T17:08:54.206Z,28.60
2023-03-19T17:11:30.547Z,28.60
2023-03-19T17:14:00.931Z,28.60
2023-03-19T17:16:31.258Z,28.60
2023-03-19T17:19:00.948Z,28.60
2023-03-19T17:21:34.660Z,28.60
2023-03-19T17:24:33.016Z,28.50
2023-03-19T17:27:04.995Z,28.50
2023-03-19T17:29:34.892Z,28.50
2023-03-19T17:32:05.739Z,28.40
2023-03-19T17:34:36.809Z,28.40
2023-03-19T17:37:12.265Z,28.40
2023-03-19T17:39:43.394Z,28.30
2023-03-19T17:42:23.732Z,28.30
2023-03-19T17:44:53.345Z,28.30
2023-03-19T17:47:23.020Z,28.30
2023-03-19T17:49:52.275Z,28.20
2023-03-19T17:52:22.158Z,28.20
2023-03-19T17:54:51.327Z,28.10
2023-03-19T17:57:20.466Z,28.10
2023-03-19T17:59:49.581Z,28.10
2023-03-19T18:02:32.613Z,28.00
2023-03-19T18:05:01.779Z,28.00
2023-03-19T18:07:30.999Z,27.90
2023-03-19T18:10:00.202Z,27.90
2023-03-19T18:12:29.409Z,27.90
2023-03-19T18:14:59.189Z,27.80
2023-03-19T18:17:28.433Z,27.80
2023-03-19T18:19:57.714Z,27.80
2023-03-19T18:22:28.274Z,27.70
2023-03-19T18:24:59.067Z,27.70
2023-03-19T18:27:28.226Z,27.70
2023-03-19T18:29:57.373Z,27.60
2023-03-19T18:32:33.597Z,27.60
2023-03-19T18:35:04.437Z,27.60
2023-03-19T18:37:35.800Z,27.50
2023-03-19T18:40:05.798Z,27.50
2023-03-19T18:42:34.913Z,27.50
2023-03-19T18:45:04.125Z,27.50
2023-03-19T18:47:33.642Z,27.50
2023-03-19T18:50:02.865Z,27.50
2023-03-19T18:52:32.202Z,27.40
2023-03-19T18:55:01.395Z,27.40
2023-03-19T18:57:30.611Z,27.40
2023-03-19T19:00:01.279Z,27.40
2023-03-19T19:02:39.216Z,27.40
2023-03-19T19:05:08.676Z,27.40
2023-03-19T19:07:37.777Z,27.40
2023-03-19T19:10:08.509Z,27.40
2023-03-19T19:12:40.373Z,27.40
2023-03-19T19:15:29.053Z,27.40
2023-03-19T19:17:59.008Z,27.40
2023-03-19T19:20:30.870Z,27.40
2023-03-19T19:23:00.023Z,27.40
2023-03-19T19:25:31.068Z,27.40
2023-03-19T19:28:10.008Z,27.40
2023-03-19T19:30:39.717Z,27.30
2023-03-19T19:33:22.028Z,27.20
2023-03-19T19:35:53.047Z,27.20
2023-03-19T19:38:22.495Z,27.20
2023-03-19T19:40:55.376Z,27.20
2023-03-19T19:43:30.265Z,27.20
2023-03-19T19:46:01.268Z,27.10
2023-03-19T19:48:32.516Z,27.10
2023-03-19T19:51:02.147Z,27.10
2023-03-19T19:53:31.925Z,27.10
2023-03-19T19:56:02.447Z,27.00
2023-03-19T19:58:34.941Z,27.00
2023-03-19T20:01:04.780Z,27.00
2023-03-19T20:03:36.053Z,27.00
2023-03-19T20:06:05.480Z,27.00
2023-03-19T20:08:34.626Z,27.00
2023-03-19T20:11:04.960Z,26.90
2023-03-19T20:13:38.794Z,26.90
2023-03-19T20:16:08.511Z,26.90
2023-03-19T20:18:40.535Z,26.80
2023-03-19T20:21:09.697Z,26.80
2023-03-19T20:23:38.819Z,26.70
2023-03-19T20:26:08.170Z,26.70
2023-03-19T20:28:37.425Z,26.70
2023-03-19T20:31:07.262Z,26.60
2023-03-19T20:33:38.308Z,26.60
2023-03-19T20:36:08.031Z,26.60
2023-03-19T20:38:37.725Z,26.60
2023-03-19T20:41:21.166Z,26.50
2023-03-19T20:43:51.768Z,26.50
2023-03-19T20:46:24.099Z,26.40
2023-03-19T20:48:53.415Z,26.40
2023-03-19T20:51:27.017Z,26.40
2023-03-19T20:53:56.384Z,26.40
2023-03-19T20:56:29.033Z,26.40
2023-03-19T20:58:58.232Z,26.40
2023-03-19T21:01:27.686Z,26.40
2023-03-19T21:03:57.023Z,26.30
2023-03-19T21:06:27.037Z,26.30
2023-03-19T21:09:00.568Z,26.30
2023-03-19T21:11:43.162Z,26.30
2023-03-19T21:14:17.199Z,26.30
2023-03-19T21:16:46.384Z,26.40
2023-03-19T21:19:15.469Z,26.30
2023-03-19T21:21:45.026Z,26.30
2023-03-19T21:24:18.833Z,26.30
2023-03-19T21:26:48.713Z,26.30
2023-03-19T21:29:34.408Z,26.30
2023-03-19T21:32:03.582Z,26.30
2023-03-19T21:34:32.740Z,26.20
2023-03-19T21:37:02.131Z,26.20
2023-03-19T21:39:32.341Z,26.20
2023-03-19T21:42:08.964Z,26.20
2023-03-19T21:44:39.881Z,26.10
2023-03-19T21:47:19.750Z,26.20
2023-03-19T21:49:49.581Z,26.20
2023-03-19T21:52:24.534Z,26.20
2023-03-19T21:54:53.688Z,26.20
2023-03-19T21:57:22.828Z,26.10
2023-03-19T21:59:51.949Z,26.20
2023-03-19T22:02:24.236Z,26.10
2023-03-19T22:04:53.386Z,26.20
2023-03-19T22:07:22.605Z,26.20
2023-03-19T22:09:51.722Z,26.20
2023-03-19T22:12:30.143Z,26.20
2023-03-19T22:15:00.005Z,26.20
2023-03-19T22:17:30.168Z,26.20
2023-03-19T22:19:59.754Z,26.20
2023-03-19T22:22:28.880Z,26.20
2023-03-19T22:25:00.209Z,26.20
2023-03-19T22:27:29.490Z,26.30
2023-03-19T22:30:02.142Z,26.30
2023-03-19T22:32:31.424Z,26.30
2023-03-19T22:35:02.665Z,26.40
2023-03-19T22:37:33.260Z,26.40
2023-03-19T22:40:02.413Z,26.40
2023-03-19T22:42:31.889Z,26.40
2023-03-19T22:45:01.185Z,26.40
2023-03-19T22:47:31.531Z,26.40
2023-03-19T22:50:01.087Z,26.40
2023-03-19T22:52:30.720Z,26.30
2023-03-19T22:54:59.889Z,26.30
2023-03-19T22:57:29.041Z,26.30
2023-03-19T22:59:58.154Z,26.40
2023-03-19T23:02:28.146Z,26.30
2023-03-19T23:04:57.268Z,26.40
2023-03-19T23:07:26.357Z,26.40
2023-03-19T23:09:56.106Z,26.40
2023-03-19T23:12:25.197Z,26.40
2023-03-19T23:14:54.772Z,26.40
2023-03-19T23:17:23.934Z,26.40
2023-03-19T23:19:55.401Z,26.40
2023-03-19T23:22:24.545Z,26.40
2023-03-19T23:24:53.711Z,26.40
2023-03-19T23:27:37.906Z,26.40
2023-03-19T23:30:07.854Z,26.40
2023-03-19T23:32:37.197Z,26.30
2023-03-19T23:35:18.760Z,26.30
2023-03-19T23:37:48.731Z,26.30
2023-03-19T23:40:20.565Z,26.20
2023-03-19T23:42:54.831Z,26.20
2023-03-19T23:45:30.574Z,26.20
2023-03-19T23:48:16.600Z,26.20
2023-03-19T23:50:48.000Z,26.20
2023-03-19T23:53:25.258Z,26.20
2023-03-19T23:56:05.691Z,26.30
2023-03-19T23:58:41.294Z,26.30
